createdAt,value
2023-03-21T04:46:45.577Z,7.20
2023-03-21T04:49:12.352Z,7.10
2023-03-21T04:51:39.804Z,6.80
2023-03-21T04:54:06.711Z,6.80
2023-03-21T04:56:34.151Z,6.80
2023-03-21T04:59:07.075Z,6.90
2023-03-21T05:01:34.105Z,7.00
2023-03-21T05:04:02.213Z,7.10
2023-03-21T05:06:29.049Z,7.10
2023-03-21T05:09:00.093Z,7.20
2023-03-21T05:11:28.323Z,7.10
2023-03-21T05:13:54.999Z,7.10
2023-03-21T05:16:25.465Z,7.10
2023-03-21T05:18:55.498Z,7.00
2023-03-21T05:21:22.828Z,6.90
2023-03-21T05:23:54.845Z,6.90
2023-03-21T05:26:23.176Z,7.00
2023-03-21T05:28:50.473Z,7.00
2023-03-21T05:31:18.474Z,7.00
2023-03-21T05:33:45.864Z,6.90
2023-03-21T05:36:13.682Z,7.00
2023-03-21T05:38:45.397Z,6.90
2023-03-21T05:41:19.117Z,6.90
2023-03-21T05:43:45.923Z,6.90
2023-03-21T05:46:12.615Z,6.90
2023-03-21T05:48:39.325Z,6.90
2023-03-21T05:51:06.255Z,6.90
2023-03-21T05:53:32.872Z,6.90
2023-03-21T05:55:59.542Z,7.00
2023-03-21T05:58:26.266Z,7.00
2023-03-21T06:00:52.888Z,7.00
2023-03-21T06:03:19.518Z,6.90
2023-03-21T06:05:46.310Z,6.90
2023-03-21T06:08:13.038Z,6.90
2023-03-21T06:10:39.755Z,6.90
2023-03-21T06:13:06.400Z,7.00
2023-03-21T06:15:33.194Z,7.10
2023-03-21T06:17:59.854Z,7.10
2023-03-21T06:20:26.504Z,7.20
2023-03-21T06:22:53.149Z,7.10
2023-03-21T06:25:20.153Z,7.20
2023-03-21T06:27:46.763Z,7.20
2023-03-21T06:30:14.082Z,7.30
2023-03-21T06:32:40.689Z,7.40
2023-03-21T06:35:07.564Z,7.50
2023-03-21T06:37:34.272Z,7.70
2023-03-21T06:40:01.091Z,7.90
2023-03-21T06:42:27.767Z,8.10
2023-03-21T06:44:54.399Z,8.20
2023-03-21T06:47:21.040Z,8.30
2023-03-21T06:49:47.707Z,8.50
2023-03-21T06:52:14.335Z,8.60
2023-03-21T06:54:40.971Z,8.70
2023-03-21T06:57:07.736Z,8.80
2023-03-21T06:59:34.409Z,8.90
2023-03-21T07:02:01.281Z,9.00
2023-03-21T07:04:28.155Z,9.20
2023-03-21T07:06:54.854Z,9.10
2023-03-21T07:09:24.553Z,9.10
2023-03-21T07:11:53.479Z,9.30
2023-03-21T07:14:20.274Z,9.60
2023-03-21T07:16:47.065Z,9.80
2023-03-21T07:19:14.038Z,9.90
2023-03-21T07:21:40.802Z,10.10
2023-03-21T07:24:07.706Z,10.20
2023-03-21T07:26:34.346Z,10.40
2023-03-21T07:29:00.958Z,10.70
2023-03-21T07:31:27.685Z,10.90
2023-03-21T07:33:54.353Z,11.00
2023-03-21T07:36:21.306Z,11.20
2023-03-21T07:38:47.946Z,11.30
2023-03-21T07:43:46.469Z,11.40
2023-03-21T07:46:13.249Z,11.70
2023-03-21T07:48:39.930Z,11.80
2023-03-21T07:51:06.945Z,11.90
2023-03-21T07:53:33.700Z,12.10
2023-03-21T07:56:00.313Z,12.30
2023-03-21T07:58:28.405Z,12.30
2023-03-21T08:00:56.598Z,12.60
2023-03-21T08:03:24.048Z,13.20
2023-03-21T08:05:51.048Z,13.80
2023-03-21T08:08:17.998Z,14.50
2023-03-21T08:10:44.751Z,15.30
2023-03-21T08:13:11.957Z,16.10
2023-03-21T08:15:42.303Z,17.00
2023-03-21T08:18:10.126Z,18.00
2023-03-21T08:20:37.332Z,18.90
2023-03-21T08:23:04.244Z,19.70
2023-03-21T08:25:31.370Z,20.20
2023-03-21T08:27:58.043Z,21.10
2023-03-21T08:30:28.073Z,22.00
2023-03-21T08:33:01.364Z,22.70
2023-03-21T08:35:29.443Z,23.20
2023-03-21T08:37:56.101Z,23.60
2023-03-21T08:40:22.763Z,24.30
2023-03-21T08:42:49.515Z,24.70
2023-03-21T08:45:17.615Z,25.20
2023-03-21T08:47:44.465Z,25.70
2023-03-21T08:50:14.572Z,26.30
2023-03-21T08:52:41.457Z,26.30
2023-03-21T08:55:09.108Z,26.70
2023-03-21T08:57:36.080Z,26.30
2023-03-21T09:00:12.126Z,25.30
2023-03-21T09:02:39.161Z,24.40
2023-03-21T09:05:07.596Z,24.70
2023-03-21T09:07:37.525Z,24.40
2023-03-21T09:10:20.225Z,24.10
2023-03-21T09:12:48.525Z,23.80
2023-03-21T09:15:15.230Z,23.50
2023-03-21T09:17:48.975Z,22.80
2023-03-21T09:20:18.737Z,21.30
2023-03-21T09:22:50.318Z,19.80
2023-03-21T09:25:17.742Z,18.90
2023-03-21T09:27:45.818Z,18.20
2023-03-21T09:30:17.141Z,17.70
2023-03-21T09:32:48.233Z,17.50
2023-03-21T09:35:19.107Z,17.50
2023-03-21T09:37:47.244Z,17.80
2023-03-21T09:40:52.976Z,17.90
2023-03-21T09:43:42.106Z,18.10
2023-03-21T09:46:25.082Z,18.10
2023-03-21T09:49:09.756Z,18.50
2023-03-21T09:51:46.295Z,19.30
2023-03-21T09:54:21.283Z,19.20
2023-03-21T09:56:50.759Z,19.70
2023-03-21T09:59:40.142Z,20.10
2023-03-21T10:02:32.111Z,20.60
2023-03-21T10:05:11.916Z,20.10
2023-03-21T10:07:42.767Z,20.10
2023-03-21T10:10:17.940Z,19.70
2023-03-21T10:12:47.137Z,19.50
2023-03-21T10:15:20.518Z,19.00
2023-03-21T10:18:05.536Z,18.70
2023-03-21T10:20:34.682Z,18.50
2023-03-21T10:23:05.256Z,18.10
2023-03-21T10:25:40.293Z,17.80
2023-03-21T10:28:14.974Z,17.40
2023-03-21T10:31:04.513Z,17.10
2023-03-21T10:33:37.641Z,16.80
2023-03-21T10:36:16.315Z,17.00
2023-03-21T10:39:14.910Z,17.00
2023-03-21T10:41:41.760Z,16.80
2023-03-21T10:44:14.901Z,17.20
2023-03-21T10:46:59.223Z,17.20
2023-03-21T10:49:26.667Z,17.20
2023-03-21T10:51:57.862Z,17.00
2023-03-21T10:54:29.894Z,17.20
2023-03-21T10:57:05.807Z,17.30
2023-03-21T10:59:40.495Z,17.30
2023-03-21T11:02:14.533Z,17.20
2023-03-21T11:04:43.640Z,17.60
2023-03-21T11:07:14.321Z,17.00
2023-03-21T11:09:48.237Z,17.40
2023-03-21T11:12:17.771Z,17.70
2023-03-21T11:14:49.158Z,17.30
2023-03-21T11:17:18.511Z,17.10
2023-03-21T11:20:11.262Z,16.80
2023-03-21T11:22:42.230Z,16.60
2023-03-21T11:25:19.774Z,16.70
2023-03-21T11:27:54.873Z,17.10
2023-03-21T11:30:24.882Z,17.10
2023-03-21T11:32:55.560Z,17.10
2023-03-21T11:35:25.346Z,17.20
2023-03-21T11:37:54.716Z,17.50
2023-03-21T11:40:26.045Z,17.50
2023-03-21T11:43:24.442Z,17.80
2023-03-21T11:46:24.353Z,17.80
2023-03-21T11:48:51.295Z,17.50
2023-03-21T11:51:44.893Z,17.60
2023-03-21T11:54:30.372Z,17.30
2023-03-21T11:57:07.675Z,17.60
2023-03-21T11:59:42.413Z,17.80
2023-03-21T12:02:43.497Z,17.30
2023-03-21T12:05:32.377Z,17.50
2023-03-21T12:08:17.697Z,17.60
2023-03-21T12:11:16.538Z,17.70
2023-03-21T12:13:51.376Z,17.60
2023-03-21T12:16:54.718Z,17.70
2023-03-21T12:19:30.282Z,17.80
2023-03-21T12:22:24.973Z,17.30
2023-03-21T12:24:56.803Z,17.40
2023-03-21T12:27:37.521Z,18.00
2023-03-21T12:30:18.793Z,18.10
2023-03-21T12:33:05.777Z,18.20
2023-03-21T12:36:05.279Z,18.20
2023-03-21T12:39:01.759Z,18.20
2023-03-21T12:41:54.484Z,18.20
2023-03-21T12:44:24.271Z,18.50
2023-03-21T12:47:02.286Z,18.50
2023-03-21T12:49:38.488Z,18.50
2023-03-21T12:52:11.977Z,18.70
2023-03-21T12:54:49.325Z,19.00
2023-03-21T12:57:38.305Z,19.20
2023-03-21T13:00:22.799Z,18.60
2023-03-21T13:02:55.433Z,18.20
2023-03-21T13:05:45.044Z,18.20
2023-03-21T13:08:18.221Z,18.30
2023-03-21T13:10:46.224Z,17.90
2023-03-21T13:13:36.540Z,17.90
2023-03-21T13:16:20.187Z,17.60
2023-03-21T13:19:16.110Z,18.20
2023-03-21T13:21:52.382Z,19.00
2023-03-21T13:24:27.193Z,19.00
2023-03-21T13:27:16.430Z,18.90
2023-03-21T13:29:49.496Z,18.70
2023-03-21T13:32:39.571Z,19.00
2023-03-21T13:35:09.748Z,18.80
2023-03-21T13:37:42.135Z,18.70
2023-03-21T13:40:25.954Z,18.80
2023-03-21T13:43:00.498Z,18.70
2023-03-21T13:45:45.178Z,18.40
2023-03-21T13:48:32.140Z,18.40
2023-03-21T13:51:03.433Z,18.70
2023-03-21T13:53:32.099Z,18.60
2023-03-21T13:56:06.612Z,18.40
2023-03-21T13:58:37.639Z,18.40
2023-03-21T14:01:21.218Z,18.20
2023-03-21T14:03:48.226Z,18.30
2023-03-21T14:06:18.152Z,18.80
2023-03-21T14:08:47.344Z,19.10
2023-03-21T14:11:17.689Z,19.30
2023-03-21T14:13:51.406Z,19.10
2023-03-21T14:16:20.382Z,18.90
2023-03-21T14:18:59.885Z,19.00
2023-03-21T14:21:31.152Z,18.50
2023-03-21T14:23:57.990Z,18.30
2023-03-21T14:26:27.417Z,18.00
2023-03-21T14:28:54.727Z,17.90
2023-03-21T14:31:21.685Z,17.90
2023-03-21T14:33:54.005Z,18.10
2023-03-21T14:36:28.551Z,17.90
2023-03-21T14:39:17.365Z,17.60
2023-03-21T14:41:52.673Z,17.10
2023-03-21T14:44:27.782Z,17.20
2023-03-21T14:47:03.909Z,17.20
2023-03-21T14:49:32.962Z,17.30
2023-03-21T14:52:07.411Z,17.30
2023-03-21T14:54:34.494Z,17.10
2023-03-21T14:57:04.765Z,17.10
2023-03-21T14:59:35.428Z,17.30
2023-03-21T15:02:11.906Z,17.30
2023-03-21T15:04:38.696Z,17.20
2023-03-21T15:07:07.728Z,17.30
2023-03-21T15:09:35.629Z,17.30
2023-03-21T15:12:08.543Z,17.20
2023-03-21T15:14:36.672Z,17.40
2023-03-21T15:17:05.875Z,17.30
2023-03-21T15:19:35.435Z,17.50
2023-03-21T15:22:12.932Z,17.50
2023-03-21T15:24:45.122Z,17.50
2023-03-21T15:27:18.579Z,17.50
2023-03-21T15:29:46.530Z,17.50
2023-03-21T15:32:17.519Z,17.60
2023-03-21T15:34:44.732Z,17.70
2023-03-21T15:37:33.426Z,17.60
2023-03-21T15:40:30.971Z,17.70
2023-03-21T15:43:20.317Z,17.60
2023-03-21T15:45:56.617Z,17.60
2023-03-21T15:48:28.633Z,17.40
2023-03-21T15:51:03.390Z,17.30
2023-03-21T15:53:33.639Z,17.10
2023-03-21T15:56:02.006Z,17.10
2023-03-21T15:58:35.941Z,17.30
2023-03-21T16:01:06.532Z,17.40
2023-03-21T16:03:38.121Z,17.50
2023-03-21T16:06:17.260Z,17.50
2023-03-21T16:08:50.435Z,17.50
2023-03-21T16:11:25.452Z,17.40
2023-03-21T16:13:53.523Z,17.40
2023-03-21T16:16:26.432Z,17.30
2023-03-21T16:18:54.870Z,17.20
2023-03-21T16:21:24.080Z,17.10
2023-03-21T16:23:51.057Z,17.20
2023-03-21T16:26:21.649Z,17.20
2023-03-21T16:28:49.293Z,17.30
2023-03-21T16:31:19.160Z,17.30
2023-03-21T16:33:46.437Z,17.30
2023-03-21T16:36:30.665Z,17.30
2023-03-21T16:38:58.140Z,17.30
2023-03-21T16:41:27.158Z,17.30
2023-03-21T16:43:53.899Z,17.20
2023-03-21T16:46:26.192Z,17.10
2023-03-21T16:48:57.731Z,17.10
2023-03-21T16:51:30.456Z,17.00
2023-03-21T16:53:57.841Z,16.80
2023-03-21T16:56:31.952Z,16.70
2023-03-21T16:58:58.873Z,16.50
2023-03-21T17:01:25.920Z,16.60
2023-03-21T17:03:53.543Z,16.70
2023-03-21T17:06:24.207Z,16.50
2023-03-21T17:08:51.578Z,16.40
2023-03-21T17:11:20.697Z,16.10
2023-03-21T17:13:48.812Z,16.00
2023-03-21T17:16:18.389Z,15.80
2023-03-21T17:18:45.107Z,15.70
2023-03-21T17:21:26.553Z,15.70
2023-03-21T17:23:54.196Z,15.70
2023-03-21T17:26:27.395Z,15.60
2023-03-21T17:28:56.663Z,15.60
2023-03-21T17:31:25.252Z,15.40
2023-03-21T17:33:52.075Z,15.30
2023-03-21T17:36:30.167Z,15.20
2023-03-21T17:38:57.835Z,15.00
2023-03-21T17:41:24.887Z,14.80
2023-03-21T17:43:51.696Z,14.70
2023-03-21T17:46:22.921Z,14.60
2023-03-21T17:48:50.261Z,14.50
2023-03-21T17:51:17.671Z,14.60
2023-03-21T17:53:45.662Z,14.60
2023-03-21T17:56:32.130Z,14.60
2023-03-21T17:59:05.288Z,14.50
2023-03-21T18:01:32.027Z,14.40
2023-03-21T18:04:02.072Z,14.30
2023-03-21T18:06:28.767Z,14.40
2023-03-21T18:08:55.521Z,14.40
2023-03-21T18:11:24.379Z,14.40
2023-03-21T18:13:59.450Z,14.40
2023-03-21T18:16:33.422Z,14.40
2023-03-21T18:19:00.185Z,14.30
2023-03-21T18:21:32.141Z,14.30
2023-03-21T18:23:59.423Z,14.40
2023-03-21T18:26:26.142Z,14.50
2023-03-21T18:29:36.632Z,14.40
2023-03-21T18:31:40.253Z,14.30
2023-03-21T18:34:06.961Z,14.30
2023-03-21T18:36:34.093Z,14.20
2023-03-21T18:39:03.233Z,14.10
2023-03-21T18:41:30.531Z,14.00
2023-03-21T18:44:02.778Z,13.90
2023-03-21T18:46:47.059Z,14.00
2023-03-21T18:52:04.590Z,14.10
2023-03-21T18:54:31.395Z,14.00
2023-03-21T18:57:33.737Z,14.00
2023-03-21T18:59:45.193Z,14.00
2023-03-21T19:02:13.866Z,14.00
2023-03-21T19:04:40.870Z,14.10
2023-03-21T19:07:08.497Z,14.10
2023-03-21T19:09:58.102Z,14.00
2023-03-21T19:12:23.612Z,13.90
2023-03-21T19:14:50.358Z,14.00
2023-03-21T19:18:14.363Z,13.80
2023-03-21T19:20:05.587Z,13.80
2023-03-21T19:22:32.206Z,13.80
2023-03-21T19:24:58.861Z,13.80
2023-03-21T19:27:25.782Z,13.90
2023-03-21T19:30:10.919Z,13.90
2023-03-21T19:32:40.575Z,14.00
2023-03-21T19:35:07.500Z,13.90
2023-03-21T19:37:36.226Z,13.80
2023-03-21T19:40:05.518Z,13.90
2023-03-21T19:42:32.525Z,13.90
2023-03-21T19:44:59.361Z,14.00
2023-03-21T19:47:26.279Z,14.00
2023-03-21T19:52:40.950Z,14.00
2023-03-21T19:55:08.327Z,13.90
2023-03-21T19:57:35.319Z,13.80
2023-03-21T20:00:02.278Z,13.80
2023-03-21T20:02:37.127Z,13.70
2023-03-21T20:05:06.653Z,13.70
2023-03-21T20:07:33.479Z,13.60
2023-03-21T20:10:00.609Z,13.70
2023-03-21T20:12:27.534Z,13.60
2023-03-21T20:15:07.000Z,13.60
2023-03-21T20:17:41.865Z,13.60
2023-03-21T20:20:10.127Z,13.60
2023-03-21T20:23:05.112Z,13.40
2023-03-21T20:25:23.567Z,13.20
2023-03-21T20:28:07.314Z,13.30
2023-03-21T20:30:37.157Z,13.30
2023-03-21T20:33:04.305Z,13.30
2023-03-21T20:36:16.485Z,13.30
2023-03-21T20:38:20.443Z,13.10
2023-03-21T20:40:47.967Z,13.10
2023-03-21T20:44:02.196Z,12.90
2023-03-21T20:46:03.923Z,12.90
2023-03-21T20:48:31.056Z,13.10
2023-03-21T20:51:25.056Z,13.10
2023-03-21T20:53:48.927Z,13.00
2023-03-21T20:56:15.881Z,13.20
2023-03-21T20:59:04.582Z,13.10
2023-03-21T21:01:29.213Z,13.00
2023-03-21T21:03:57.510Z,13.00
2023-03-21T21:06:24.451Z,12.90
2023-03-21T21:08:51.315Z,12.90
2023-03-21T21:12:02.965Z,12.90
2023-03-21T21:14:05.451Z,12.80
2023-03-21T21:16:32.748Z,12.80
2023-03-21T21:18:59.455Z,12.90
2023-03-21T21:21:27.658Z,12.80
2023-03-21T21:23:54.355Z,12.80
2023-03-21T21:26:21.006Z,12.70
2023-03-21T21:28:47.805Z,12.70
2023-03-21T21:31:16.787Z,12.70
2023-03-21T21:33:49.994Z,12.60
2023-03-21T21:36:17.289Z,12.60
2023-03-21T21:38:43.980Z,12.60
2023-03-21T21:41:17.619Z,12.50
2023-03-21T21:43:44.241Z,12.60
2023-03-21T21:46:11.523Z,12.60
2023-03-21T21:48:40.017Z,12.50
2023-03-21T21:51:07.157Z,12.40
2023-03-21T21:53:33.754Z,12.40
2023-03-21T21:56:03.564Z,12.50
2023-03-21T21:58:33.614Z,12.50
2023-03-21T22:01:01.853Z,12.50
2023-03-21T22:03:36.397Z,12.50
2023-03-21T22:06:04.570Z,12.40
2023-03-21T22:08:31.470Z,12.30
2023-03-21T22:11:00.635Z,12.20
2023-03-21T22:13:27.745Z,12.30
2023-03-21T22:15:55.327Z,12.30
2023-03-21T22:18:22.631Z,12.30
2023-03-21T22:20:51.104Z,12.10
2023-03-21T22:23:19.331Z,12.10
2023-03-21T22:25:51.286Z,12.10
2023-03-21T22:28:21.993Z,12.10
2023-03-21T22:30:48.875Z,12.10
2023-03-21T22:33:15.695Z,12.30
2023-03-21T22:35:42.387Z,12.30
2023-03-21T22:38:09.106Z,12.40
2023-03-21T22:40:35.851Z,12.40
2023-03-21T22:43:02.821Z,12.40
2023-03-21T22:45:29.561Z,12.40
2023-03-21T22:47:56.313Z,12.50
2023-03-21T22:50:22.957Z,12.40
2023-03-21T22:52:49.617Z,12.40
2023-03-21T22:55:16.351Z,12.20
2023-03-21T22:57:50.867Z,12.30
2023-03-21T23:00:18.384Z,12.40
2023-03-21T23:02:45.262Z,12.40
2023-03-21T23:05:12.095Z,12.40
2023-03-21T23:07:38.812Z,12.40
2023-03-21T23:10:07.669Z,12.30
2023-03-21T23:12:34.549Z,12.30
2023-03-21T23:15:02.342Z,12.10
2023-03-21T23:17:29.286Z,12.10
2023-03-21T23:19:56.186Z,12.20
2023-03-21T23:22:22.836Z,12.20
2023-03-21T23:24:49.598Z,12.30
2023-03-21T23:27:18.048Z,12.30
2023-03-21T23:29:45.328Z,12.30
2023-03-21T23:32:11.980Z,12.20
2023-03-21T23:34:38.608Z,12.20
2023-03-21T23:37:06.749Z,12.10
2023-03-21T23:39:33.768Z,12.00
2023-03-21T23:42:00.799Z,11.80
2023-03-21T23:44:27.642Z,11.80
2023-03-21T23:46:54.680Z,11.80
2023-03-21T23:49:21.374Z,11.80
2023-03-21T23:51:48.046Z,11.70
2023-03-21T23:54:14.923Z,11.70
2023-03-21T23:56:42.047Z,11.70
2023-03-21T23:59:08.892Z,11.60
